Flight Briefing for CPX32

Departure Arrival
Ted Stevens Anchorage International Airport (PANC)
Click to view FAA NOTAMS
Tokyo-Narita International Airport (RJAA)
Click to view FAA NOTAMS
Departure Time Arrival Time
N/A N/A
Aircraft Distance
B767-300BDSF 2981nm
Departure METAR Arrival METAR
PANC 230553Z 17010G15KT 10SM SCT080 BKN100 BKN160 OVC200 12/01 A2995 RMK AO2 SLP142 T01170011 50000 $ RJAA 230630Z 08006KT 030V150 9999 FEW030 25/07 Q1007 BECMG 14010KT RMK 1CU030 A2976
Suggested Route
NODLE R220 NANZA R220 NIKLL R220 NANAC Y810 ARMOR Y810 KETAR Y811 MELON


View recent IFR Routes data
Notes



Charts and Procedures

Charts for PANC
No chart available
Charts for RJAA
No chart available

Windy.com Weather Map